Time;durP1;ratioP1;P1;durP2;ratioP2;P2;SDS_P1;SDS_P2;PMS_P1;PMS_P2;Temp;Humidity;BMP_temperature;BMP_pressure;BME280_temperature;BME280_humidity;BME280_pressure;Samples;Min_cycle;Max_cycle;Signal;HPM_P1;HPM_P2
2022/02/28 00:01:22;;;;;;;8.40;6.00;;;-0.90;97.40;;;;;;5132592;27;20640;-78
2022/02/28 00:03:50;;;;;;;8.65;5.90;;;-1.00;97.50;;;;;;5132473;27;20245;-77
2022/02/28 00:06:16;;;;;;;8.88;6.55;;;-1.00;97.70;;;;;;5132340;27;20194;-78
2022/02/28 00:08:43;;;;;;;8.10;6.50;;;-1.00;97.80;;;;;;5131612;27;20592;-78
2022/02/28 00:11:10;;;;;;;9.07;5.78;;;-1.00;97.80;;;;;;5132219;27;20198;-78
2022/02/28 00:13:37;;;;;;;7.82;5.30;;;-1.00;97.90;;;;;;5132185;27;20222;-78
2022/02/28 00:16:06;;;;;;;7.75;6.22;;;-1.00;97.90;;;;;;5132539;27;20203;-78
2022/02/28 00:18:33;;;;;;;9.07;5.78;;;-0.90;98.00;;;;;;5131688;27;20194;-78
2022/02/28 00:21:00;;;;;;;8.88;6.30;;;-0.90;97.90;;;;;;5132181;27;20198;-78
2022/02/28 00:23:27;;;;;;;8.15;5.60;;;-0.90;97.80;;;;;;5132135;27;20226;-78
2022/02/28 00:25:54;;;;;;;7.78;5.57;;;-0.90;97.80;;;;;;5132007;27;20623;-77
2022/02/28 00:28:21;;;;;;;8.90;6.43;;;-1.00;97.80;;;;;;5131407;28;20225;-78
2022/02/28 00:30:48;;;;;;;11.73;6.35;;;-1.00;97.80;;;;;;5131489;27;20202;-78
2022/02/28 00:33:16;;;;;;;7.50;5.93;;;-1.00;97.90;;;;;;5131674;27;20641;-77
2022/02/28 00:35:43;;;;;;;10.00;6.63;;;-1.10;97.90;;;;;;5120024;22;20223;-90
2022/02/28 00:38:10;;;;;;;8.40;6.13;;;-1.10;98.00;;;;;;5094103;28;20204;-89
2022/02/28 00:40:37;;;;;;;8.52;6.13;;;-1.10;97.90;;;;;;5094287;28;20579;-91
2022/02/28 00:43:04;;;;;;;9.07;6.20;;;-1.20;97.90;;;;;;5094045;28;20206;-91
2022/02/28 00:45:31;;;;;;;11.10;7.13;;;-1.20;97.90;;;;;;5097031;28;20215;-91
2022/02/28 00:47:58;;;;;;;7.80;6.30;;;-1.30;97.90;;;;;;5095358;28;20208;-93
2022/02/28 00:50:26;;;;;;;8.25;6.30;;;-1.30;98.20;;;;;;5097304;28;20196;-91
2022/02/28 00:52:53;;;;;;;7.85;6.28;;;-1.30;98.20;;;;;;5098596;28;20210;-92
2022/02/28 00:55:20;;;;;;;8.40;6.65;;;-1.40;97.90;;;;;;5112783;28;20208;-92
2022/02/28 00:57:47;;;;;;;10.85;6.55;;;-1.40;98.00;;;;;;5104571;28;20207;-92
2022/02/28 01:00:17;;;;;;;8.25;5.95;;;-1.40;98.70;;;;;;5095108;28;20577;-92
2022/02/28 01:02:43;;;;;;;8.85;6.47;;;-1.40;98.40;;;;;;5097960;28;20204;-92
2022/02/28 01:05:11;;;;;;;8.40;6.10;;;-1.40;98.60;;;;;;5093817;28;20223;-91
2022/02/28 01:07:40;;;;;;;7.68;5.88;;;-1.40;98.70;;;;;;5094069;28;20554;-92
2022/02/28 01:10:10;;;;;;;10.85;6.30;;;-1.50;98.60;;;;;;5093525;28;20227;-92
2022/02/28 01:12:37;;;;;;;8.80;6.25;;;-1.50;98.60;;;;;;5093962;28;20575;-91
2022/02/28 01:15:06;;;;;;;9.82;5.90;;;-1.60;98.50;;;;;;5094401;28;20334;-91
2022/02/28 01:17:33;;;;;;;7.40;5.70;;;-1.60;98.60;;;;;;5096841;28;20204;-91
2022/02/28 01:19:59;;;;;;;10.35;6.82;;;-1.60;98.90;;;;;;5098206;28;20200;-93
2022/02/28 01:22:26;;;;;;;8.48;7.28;;;-1.70;98.90;;;;;;5100414;28;20204;-91
2022/02/28 01:24:55;;;;;;;8.07;6.88;;;-1.70;99.10;;;;;;5101508;28;20227;-92
2022/02/28 01:27:22;;;;;;;7.35;5.80;;;-1.70;99.10;;;;;;5103223;28;20648;-92
2022/02/28 01:29:49;;;;;;;11.88;6.78;;;-1.70;99.30;;;;;;5104510;28;20249;-91
2022/02/28 01:32:16;;;;;;;6.55;5.85;;;-1.80;99.20;;;;;;5105030;28;20203;-92
2022/02/28 01:34:44;;;;;;;10.73;6.80;;;-1.80;99.20;;;;;;5105682;28;20228;-91
2022/02/28 01:37:11;;;;;;;12.00;6.90;;;-1.80;99.20;;;;;;5109164;28;20215;-92
2022/02/28 01:39:40;;;;;;;9.35;6.82;;;-1.80;99.20;;;;;;5111703;28;20260;-91
2022/02/28 01:42:09;;;;;;;10.20;6.35;;;-1.80;99.20;;;;;;5116142;28;20214;-91
2022/02/28 01:44:36;;;;;;;12.13;7.03;;;-1.80;99.20;;;;;;5119371;28;20223;-95
2022/02/28 01:47:03;;;;;;;8.65;5.95;;;-1.80;99.30;;;;;;5120012;28;20179;-94
2022/02/28 01:49:30;;;;;;;11.85;6.82;;;-1.80;99.40;;;;;;5119920;28;20231;-95
2022/02/28 01:51:58;;;;;;;9.50;6.85;;;-1.80;99.50;;;;;;5120030;28;20172;-91
2022/02/28 01:54:25;;;;;;;8.70;6.55;;;-1.80;99.50;;;;;;5119164;28;20230;-93
2022/02/28 01:56:53;;;;;;;7.78;6.20;;;-1.90;99.40;;;;;;5118393;28;20609;-93
2022/02/28 01:59:21;;;;;;;9.90;7.03;;;-1.90;99.40;;;;;;5119911;28;20184;-95
2022/02/28 02:01:48;;;;;;;9.18;6.85;;;-1.90;99.60;;;;;;5118949;28;20191;-93
2022/02/28 02:04:15;;;;;;;11.13;6.60;;;-1.90;99.70;;;;;;5119325;28;20217;-92
2022/02/28 02:06:42;;;;;;;10.00;6.30;;;-2.00;99.60;;;;;;5118240;28;20190;-90
2022/02/28 02:09:09;;;;;;;10.18;7.35;;;-1.90;99.80;;;;;;5118591;28;20200;-94
2022/02/28 02:11:36;;;;;;;10.57;6.97;;;-1.90;99.80;;;;;;5119236;28;20179;-93
2022/02/28 02:14:03;;;;;;;12.00;7.93;;;-1.90;99.90;;;;;;5118876;28;20215;-91
2022/02/28 02:16:32;;;;;;;10.57;7.20;;;-1.90;99.90;;;;;;5118667;28;20247;-93
2022/02/28 02:18:58;;;;;;;11.27;7.35;;;-2.00;99.90;;;;;;5119124;28;20207;-95
2022/02/28 02:21:28;;;;;;;10.30;7.28;;;-2.00;99.90;;;;;;5119187;28;20188;-95
2022/02/28 02:23:55;;;;;;;12.45;7.75;;;-2.00;99.90;;;;;;5119212;28;20216;-95
2022/02/28 02:26:22;;;;;;;12.65;7.90;;;-2.00;99.90;;;;;;5118945;28;20214;-94
2022/02/28 02:28:48;;;;;;;12.50;7.40;;;-2.00;99.90;;;;;;5118534;28;20227;-94
2022/02/28 02:31:15;;;;;;;10.73;6.97;;;-2.10;99.90;;;;;;5117586;28;20299;-91
2022/02/28 02:33:43;;;;;;;11.07;6.88;;;-2.20;99.90;;;;;;5116650;28;20230;-93
2022/02/28 02:36:12;;;;;;;10.82;7.05;;;-2.10;99.90;;;;;;5116969;28;20207;-91
2022/02/28 02:38:40;;;;;;;7.63;6.25;;;-2.20;99.90;;;;;;5117505;28;20272;-91
2022/02/28 02:41:08;;;;;;;7.95;6.63;;;-2.10;99.90;;;;;;5118648;28;20210;-95
2022/02/28 02:43:35;;;;;;;9.57;6.80;;;-2.10;99.90;;;;;;5118688;28;20660;-92
2022/02/28 02:46:02;;;;;;;9.75;7.07;;;-2.20;99.90;;;;;;5118253;28;20195;-94
2022/02/28 02:48:29;;;;;;;9.65;6.65;;;-2.20;99.90;;;;;;5118244;28;20199;-92
2022/02/28 02:50:57;;;;;;;7.55;6.45;;;-2.20;99.90;;;;;;5118803;28;20219;-93
2022/02/28 02:53:24;;;;;;;10.02;6.93;;;-2.20;99.90;;;;;;5117865;28;20206;-92
2022/02/28 02:55:53;;;;;;;9.68;6.38;;;-2.20;99.90;;;;;;5115880;28;20220;-90
2022/02/28 02:58:20;;;;;;;11.13;6.95;;;-2.20;99.90;;;;;;5115499;28;20204;-93
2022/02/28 03:00:49;;;;;;;10.52;7.20;;;-2.20;99.90;;;;;;5115877;28;20206;-91
2022/02/28 03:03:21;;;;;;;10.57;6.95;;;-2.30;99.90;;;;;;5114798;28;20214;-92
2022/02/28 03:05:47;;;;;;;9.98;6.40;;;-2.30;99.90;;;;;;5115938;28;20310;-91
2022/02/28 03:08:14;;;;;;;11.00;6.68;;;-2.30;99.90;;;;;;5114151;28;20210;-90
2022/02/28 03:10:41;;;;;;;12.18;8.00;;;-2.30;99.90;;;;;;5115330;28;20245;-91
2022/02/28 03:13:10;;;;;;;9.90;6.55;;;-2.30;99.90;;;;;;5114696;28;20199;-90
2022/02/28 03:15:37;;;;;;;7.60;6.38;;;-2.40;99.90;;;;;;5114820;28;20245;-91
2022/02/28 03:18:04;;;;;;;9.45;6.80;;;-2.30;99.90;;;;;;5114476;28;20266;-89
2022/02/28 03:20:31;;;;;;;12.35;7.93;;;-2.30;99.90;;;;;;5115741;28;20192;-92
2022/02/28 03:22:57;;;;;;;9.65;7.38;;;-2.40;99.90;;;;;;5115401;28;20260;-92
2022/02/28 03:25:25;;;;;;;13.30;7.18;;;-2.40;99.90;;;;;;5115129;28;20296;-90
2022/02/28 03:27:52;;;;;;;10.45;7.32;;;-2.40;99.90;;;;;;5114109;28;20216;-92
2022/02/28 03:30:21;;;;;;;9.32;6.45;;;-2.50;99.90;;;;;;5114696;28;20216;-95
2022/02/28 03:32:48;;;;;;;10.05;6.55;;;-2.50;99.90;;;;;;5114825;28;20204;-91
2022/02/28 03:35:14;;;;;;;9.65;6.80;;;-2.50;99.90;;;;;;5113691;28;20238;-93
2022/02/28 03:37:41;;;;;;;9.25;7.10;;;-2.60;99.90;;;;;;5113841;28;20210;-90
2022/02/28 03:40:09;;;;;;;11.82;6.90;;;-2.50;99.90;;;;;;5113620;28;20206;-91
2022/02/28 03:42:36;;;;;;;10.00;7.20;;;-2.60;99.90;;;;;;5113750;28;20267;-92
2022/02/28 03:45:04;;;;;;;12.40;8.35;;;-2.70;99.90;;;;;;5113642;28;20216;-91
2022/02/28 03:47:33;;;;;;;10.35;7.32;;;-2.70;99.90;;;;;;5117376;28;20211;-94
2022/02/28 03:49:59;;;;;;;8.95;6.75;;;-2.70;99.90;;;;;;5111334;28;20337;-91
2022/02/28 03:52:26;;;;;;;10.02;7.05;;;-2.70;99.90;;;;;;5110336;28;20298;-90
2022/02/28 03:54:53;;;;;;;10.18;8.25;;;-2.70;99.90;;;;;;5110719;28;20223;-93
2022/02/28 03:57:20;;;;;;;15.45;7.28;;;-2.70;99.90;;;;;;5111928;28;20207;-91
2022/02/28 03:59:47;;;;;;;10.35;7.20;;;-2.80;99.90;;;;;;5109704;28;20211;-91
2022/02/28 04:02:13;;;;;;;8.65;7.28;;;-2.80;99.90;;;;;;5106498;28;20203;-93
2022/02/28 04:04:42;;;;;;;11.38;6.75;;;-2.80;99.90;;;;;;5104689;28;20247;-91
2022/02/28 04:07:09;;;;;;;12.73;7.63;;;-2.80;99.90;;;;;;5100966;28;20321;-90
2022/02/28 04:09:36;;;;;;;11.07;7.07;;;-2.80;99.90;;;;;;5096123;28;20246;-92
2022/02/28 04:12:04;;;;;;;10.18;7.15;;;-2.80;99.90;;;;;;5094582;28;20234;-91
2022/02/28 04:14:31;;;;;;;10.27;6.85;;;-2.80;99.90;;;;;;5094754;28;20231;-92
2022/02/28 04:16:58;;;;;;;8.50;6.68;;;-2.80;99.90;;;;;;5094587;28;20203;-91
2022/02/28 04:19:25;;;;;;;9.63;7.13;;;-2.80;99.90;;;;;;5095372;28;20203;-92
2022/02/28 04:21:53;;;;;;;11.70;7.20;;;-2.80;99.90;;;;;;5094652;28;20231;-91
2022/02/28 04:24:20;;;;;;;12.65;7.03;;;-2.90;99.90;;;;;;5094487;28;20310;-93
2022/02/28 04:26:47;;;;;;;10.40;7.30;;;-2.90;99.90;;;;;;5094511;28;20208;-91
2022/02/28 04:29:14;;;;;;;12.05;7.22;;;-3.00;99.90;;;;;;5094922;28;20208;-91
2022/02/28 04:31:47;;;;;;;9.65;7.32;;;-3.00;99.90;;;;;;5081352;28;20193;-92
2022/02/28 04:34:15;;;;;;;10.95;7.85;;;-3.00;99.90;;;;;;5060811;28;20244;-93
2022/02/28 04:36:45;;;;;;;10.63;7.00;;;-3.10;99.90;;;;;;5062045;28;20202;-92
2022/02/28 04:39:14;;;;;;;10.18;7.22;;;-3.10;99.90;;;;;;5071566;28;20205;-93
2022/02/28 04:41:41;;;;;;;11.50;7.65;;;-3.10;99.90;;;;;;5061539;28;20644;-92
2022/02/28 04:44:08;;;;;;;11.60;7.10;;;-3.20;99.90;;;;;;5068007;28;20226;-91
2022/02/28 04:46:35;;;;;;;12.32;8.65;;;-3.20;99.90;;;;;;5065686;28;20192;-95
2022/02/28 04:49:03;;;;;;;10.70;7.65;;;-3.20;99.90;;;;;;5060150;28;20198;-92
2022/02/28 04:51:30;;;;;;;10.02;7.20;;;-3.20;99.90;;;;;;5059891;28;20294;-89
2022/02/28 04:53:57;;;;;;;13.00;7.85;;;-3.30;99.90;;;;;;5065339;28;20257;-89
2022/02/28 04:56:25;;;;;;;10.90;7.65;;;-3.20;99.90;;;;;;5062221;28;20211;-89
2022/02/28 04:58:58;;;;;;;10.27;7.80;;;-3.20;99.90;;;;;;5067699;28;20192;-88
2022/02/28 05:01:25;;;;;;;10.70;7.82;;;-3.20;99.90;;;;;;5062585;28;20198;-89
2022/02/28 05:03:52;;;;;;;11.38;7.93;;;-3.20;99.90;;;;;;5065319;28;20193;-88
2022/02/28 05:06:18;;;;;;;13.43;7.82;;;-3.20;99.90;;;;;;5068237;28;20208;-89
2022/02/28 05:08:47;;;;;;;11.90;8.18;;;-3.30;99.90;;;;;;5063996;28;20204;-89
2022/02/28 05:11:14;;;;;;;11.27;7.55;;;-3.30;99.90;;;;;;5070530;28;20220;-89
2022/02/28 05:13:43;;;;;;;7.82;6.18;;;-3.40;99.90;;;;;;5065139;28;20204;-88
2022/02/28 05:16:10;;;;;;;12.90;7.72;;;-3.30;99.90;;;;;;5062353;28;20212;-89
2022/02/28 05:18:37;;;;;;;9.13;6.45;;;-3.30;99.90;;;;;;5063753;28;20208;-89
2022/02/28 05:21:16;;;;;;;11.55;7.43;;;-3.30;99.90;;;;;;5065070;28;20272;-90
2022/02/28 05:23:44;;;;;;;13.50;9.65;;;-3.40;99.90;;;;;;5062068;28;20466;-93
2022/02/28 05:26:10;;;;;;;10.45;8.15;;;-3.40;99.90;;;;;;5067682;28;20201;-93
2022/02/28 05:28:48;;;;;;;11.25;8.13;;;-3.30;99.90;;;;;;5063993;28;20216;-93
2022/02/28 05:31:17;;;;;;;12.32;7.38;;;-3.30;99.90;;;;;;5063054;28;20219;-92
2022/02/28 05:33:44;;;;;;;10.82;7.03;;;-3.30;99.90;;;;;;5062550;28;20211;-92
2022/02/28 05:36:12;;;;;;;10.30;7.30;;;-3.30;99.90;;;;;;5061813;28;20201;-92
2022/02/28 05:38:39;;;;;;;11.40;7.60;;;-3.30;99.90;;;;;;5061623;28;20206;-91
2022/02/28 05:41:06;;;;;;;11.25;7.95;;;-3.30;99.90;;;;;;5061486;28;20207;-92
2022/02/28 05:43:33;;;;;;;10.70;7.20;;;-3.30;99.90;;;;;;5078308;28;20204;-92
2022/02/28 05:46:00;;;;;;;11.70;8.00;;;-3.30;99.90;;;;;;5080674;28;20249;-93
2022/02/28 05:48:28;;;;;;;12.13;7.45;;;-3.40;99.90;;;;;;5108918;22;20230;-79
2022/02/28 05:50:55;;;;;;;11.70;7.68;;;-3.40;99.90;;;;;;5154364;27;20210;-75
2022/02/28 05:53:22;;;;;;;12.93;8.90;;;-3.50;99.90;;;;;;5150411;27;20222;-77
2022/02/28 05:55:48;;;;;;;14.05;8.30;;;-3.50;99.90;;;;;;5133561;28;20664;-78
2022/02/28 05:58:15;;;;;;;13.38;8.82;;;-3.50;99.90;;;;;;5133645;28;20203;-79
2022/02/28 06:00:42;;;;;;;10.27;8.00;;;-3.40;99.90;;;;;;5133727;28;20199;-80
2022/02/28 06:03:09;;;;;;;12.30;8.73;;;-3.40;99.90;;;;;;5134175;28;20210;-81
2022/02/28 06:05:37;;;;;;;10.55;7.60;;;-3.40;99.90;;;;;;5133260;28;20195;-80
2022/02/28 06:08:04;;;;;;;9.65;7.95;;;-3.40;99.90;;;;;;5132716;28;20202;-81
2022/02/28 06:10:31;;;;;;;12.27;9.05;;;-3.40;99.90;;;;;;5132574;28;20219;-79
2022/02/28 06:12:58;;;;;;;11.30;7.75;;;-3.40;99.90;;;;;;5132809;28;20190;-81
2022/02/28 06:15:24;;;;;;;14.15;8.25;;;-3.40;99.90;;;;;;5132899;28;20206;-81
2022/02/28 06:17:51;;;;;;;13.02;8.93;;;-3.40;99.90;;;;;;5132442;28;20203;-78
2022/02/28 06:20:18;;;;;;;14.02;8.82;;;-3.30;99.90;;;;;;5132493;28;20195;-81
2022/02/28 06:22:46;;;;;;;12.77;8.10;;;-3.30;99.90;;;;;;5132062;28;20205;-79
2022/02/28 06:25:13;;;;;;;15.30;8.75;;;-3.30;99.90;;;;;;5132134;28;20314;-79
2022/02/28 06:27:40;;;;;;;11.73;8.13;;;-3.30;99.90;;;;;;5131718;28;20199;-82
2022/02/28 06:30:08;;;;;;;20.33;8.93;;;-3.30;99.90;;;;;;5131690;28;20203;-80
2022/02/28 06:32:36;;;;;;;13.35;9.15;;;-3.30;99.90;;;;;;5132351;27;20198;-79
2022/02/28 06:35:04;;;;;;;11.73;8.00;;;-3.30;99.90;;;;;;5184374;22;20227;-75
2022/02/28 06:37:31;;;;;;;13.05;9.15;;;-3.30;99.90;;;;;;5121229;27;20202;-76
2022/02/28 06:39:59;;;;;;;12.85;9.38;;;-3.20;99.90;;;;;;5113367;28;20195;-77
2022/02/28 06:42:26;;;;;;;15.05;8.63;;;-3.30;99.90;;;;;;5113480;28;20226;-77
2022/02/28 06:44:52;;;;;;;26.25;9.00;;;-3.20;99.90;;;;;;5096524;28;20232;-77
2022/02/28 06:47:19;;;;;;;13.60;8.57;;;-3.20;99.90;;;;;;5092727;28;20257;-76
2022/02/28 06:49:46;;;;;;;11.73;8.63;;;-3.20;99.90;;;;;;5092889;28;20245;-76
2022/02/28 06:52:12;;;;;;;14.38;9.20;;;-3.10;99.90;;;;;;5096716;28;20242;-76
2022/02/28 06:54:39;;;;;;;16.33;9.20;;;-3.10;99.90;;;;;;5097088;28;20223;-76
2022/02/28 06:57:07;;;;;;;13.65;8.45;;;-3.00;99.90;;;;;;5092632;28;20199;-76
2022/02/28 06:59:36;;;;;;;13.70;8.77;;;-2.90;99.90;;;;;;5092598;28;20692;-75
2022/02/28 07:02:03;;;;;;;13.57;8.65;;;-2.90;99.90;;;;;;5093005;28;20287;-76
2022/02/28 07:04:29;;;;;;;12.27;9.23;;;-2.80;99.90;;;;;;5092627;28;20223;-77
2022/02/28 07:06:56;;;;;;;15.27;9.63;;;-2.80;99.90;;;;;;5092193;28;20682;-77
2022/02/28 07:09:24;;;;;;;13.32;10.35;;;-2.70;99.90;;;;;;5092544;28;20200;-76
2022/02/28 07:11:51;;;;;;;15.00;9.40;;;-2.60;99.90;;;;;;5092411;28;20427;-77
2022/02/28 07:14:19;;;;;;;16.10;9.15;;;-2.50;99.90;;;;;;5092898;28;20216;-76
2022/02/28 07:16:46;;;;;;;15.57;9.85;;;-2.30;99.90;;;;;;5091705;28;20607;-76
2022/02/28 07:19:13;;;;;;;16.77;9.55;;;-2.00;99.90;;;;;;5092376;28;20667;-77
2022/02/28 07:21:40;;;;;;;15.98;9.20;;;-1.20;99.90;;;;;;5092224;28;20192;-76
2022/02/28 07:24:07;;;;;;;13.75;7.93;;;0.00;99.90;;;;;;5092510;28;20223;-75
2022/02/28 07:26:35;;;;;;;15.18;9.85;;;1.40;99.90;;;;;;5092387;28;20206;-76
2022/02/28 07:29:02;;;;;;;9.45;7.13;;;2.60;99.90;;;;;;5092005;28;20222;-77
2022/02/28 07:31:30;;;;;;;12.60;8.30;;;3.70;98.00;;;;;;5092398;28;20246;-74
2022/02/28 07:33:56;;;;;;;15.10;8.60;;;4.80;96.70;;;;;;5092320;28;20224;-76
2022/02/28 07:36:23;;;;;;;11.60;8.10;;;5.60;95.30;;;;;;5092027;28;20218;-76
2022/02/28 07:38:50;;;;;;;12.98;7.97;;;6.50;94.00;;;;;;5091697;28;20697;-77
2022/02/28 07:41:16;;;;;;;12.30;8.45;;;7.20;93.10;;;;;;5091393;28;20555;-76
2022/02/28 07:43:43;;;;;;;11.43;9.25;;;7.90;92.00;;;;;;5091649;28;20223;-76
2022/02/28 07:46:10;;;;;;;10.45;8.20;;;8.40;91.40;;;;;;5091914;28;20211;-76
2022/02/28 07:48:38;;;;;;;10.18;8.05;;;8.70;90.90;;;;;;5091462;28;20210;-76
2022/02/28 07:51:05;;;;;;;10.07;7.95;;;8.80;90.70;;;;;;5091795;28;20223;-76
2022/02/28 07:53:32;;;;;;;11.25;8.13;;;9.10;90.10;;;;;;5092051;28;20219;-77
2022/02/28 07:55:58;;;;;;;11.40;9.50;;;9.40;89.10;;;;;;5091439;28;20230;-77
2022/02/28 07:58:25;;;;;;;10.77;8.52;;;9.60;87.80;;;;;;5091244;28;20211;-76
2022/02/28 08:00:52;;;;;;;11.85;7.90;;;9.70;87.70;;;;;;5091380;28;20200;-77
2022/02/28 08:03:19;;;;;;;17.63;9.43;;;10.10;85.70;;;;;;5091349;28;20609;-75
2022/02/28 08:05:47;;;;;;;10.27;8.65;;;10.60;84.70;;;;;;5091198;28;20210;-77
2022/02/28 08:08:13;;;;;;;12.75;9.00;;;11.20;82.80;;;;;;5091460;28;20225;-76
2022/02/28 08:10:40;;;;;;;12.27;9.15;;;11.40;82.80;;;;;;5091480;28;20220;-77
2022/02/28 08:13:07;;;;;;;12.20;9.13;;;11.70;81.40;;;;;;5091847;28;20203;-77
2022/02/28 08:15:33;;;;;;;16.70;8.50;;;12.10;80.70;;;;;;5091586;28;20196;-75
2022/02/28 08:18:00;;;;;;;12.45;8.95;;;12.30;79.80;;;;;;5090914;28;20583;-76
2022/02/28 08:20:27;;;;;;;12.88;8.75;;;12.70;79.20;;;;;;5091586;28;20203;-77
2022/02/28 08:22:55;;;;;;;12.77;8.23;;;12.80;78.30;;;;;;5090825;28;20413;-77
2022/02/28 08:25:22;;;;;;;9.90;7.70;;;13.10;76.90;;;;;;5091809;28;20195;-77
2022/02/28 08:27:49;;;;;;;10.27;8.73;;;13.20;77.10;;;;;;5090879;28;20203;-77
2022/02/28 08:30:16;;;;;;;11.87;9.30;;;13.80;75.80;;;;;;5091915;28;20206;-77
2022/02/28 08:32:43;;;;;;;10.73;9.13;;;14.20;74.80;;;;;;5091573;28;20995;-76
2022/02/28 08:35:10;;;;;;;12.20;8.73;;;14.40;73.10;;;;;;5091969;28;20489;-77
2022/02/28 08:37:37;;;;;;;10.63;8.40;;;14.20;74.30;;;;;;5091299;28;20464;-77
2022/02/28 08:40:06;;;;;;;10.40;8.73;;;14.40;73.10;;;;;;5091873;28;20461;-74
2022/02/28 08:42:33;;;;;;;10.23;9.00;;;14.70;71.20;;;;;;5095544;28;20457;-76
2022/02/28 08:45:02;;;;;;;9.83;8.60;;;14.70;72.40;;;;;;5091760;28;20470;-76
2022/02/28 08:47:29;;;;;;;9.77;8.70;;;15.20;71.60;;;;;;5090280;28;20497;-76
2022/02/28 08:49:55;;;;;;;9.10;7.80;;;15.50;70.00;;;;;;5090716;28;20461;-76
2022/02/28 08:52:22;;;;;;;10.20;8.33;;;15.80;68.50;;;;;;5091990;28;20486;-76
2022/02/28 08:54:49;;;;;;;11.17;8.60;;;16.00;67.80;;;;;;5094835;28;21011;-77
2022/02/28 08:57:17;;;;;;;9.43;8.27;;;16.30;67.90;;;;;;5095066;28;20457;-77
2022/02/28 08:59:44;;;;;;;8.73;7.70;;;16.30;66.90;;;;;;5095357;28;20468;-77
2022/02/28 09:02:11;;;;;;;9.53;7.67;;;16.50;67.60;;;;;;5094430;28;20701;-77
2022/02/28 09:04:38;;;;;;;10.37;7.33;;;16.70;66.20;;;;;;5095475;28;20527;-77
2022/02/28 09:07:05;;;;;;;9.23;7.90;;;17.00;66.20;;;;;;5095281;28;20473;-77
2022/02/28 09:09:32;;;;;;;9.00;7.53;;;17.20;64.40;;;;;;5095772;28;20460;-77
2022/02/28 09:11:58;;;;;;;8.20;7.40;;;17.10;62.90;;;;;;5095660;28;20492;-77
2022/02/28 09:14:26;;;;;;;8.93;8.03;;;16.90;65.60;;;;;;5095420;28;20477;-77
2022/02/28 09:16:53;;;;;;;8.27;7.43;;;17.20;64.70;;;;;;5094510;28;20756;-76
2022/02/28 09:19:20;;;;;;;10.20;8.23;;;17.80;64.20;;;;;;5094677;28;20461;-77
2022/02/28 09:21:47;;;;;;;9.60;7.53;;;17.90;64.00;;;;;;5094902;28;20968;-77
2022/02/28 09:24:15;;;;;;;8.23;7.40;;;18.20;65.00;;;;;;5094596;28;21007;-74
2022/02/28 09:26:42;;;;;;;8.73;7.20;;;18.50;62.00;;;;;;5093635;28;20548;-74
2022/02/28 09:29:09;;;;;;;8.63;7.87;;;19.00;62.20;;;;;;5094269;28;20472;-74
2022/02/28 09:31:37;;;;;;;9.10;7.50;;;19.00;61.50;;;;;;5094190;28;20492;-74
2022/02/28 09:34:04;;;;;;;8.70;6.97;;;19.20;62.20;;;;;;5093696;28;20481;-74
2022/02/28 09:36:31;;;;;;;6.87;6.03;;;19.60;60.40;;;;;;5094765;28;20487;-77
2022/02/28 09:38:58;;;;;;;8.90;7.50;;;19.60;60.20;;;;;;5094833;28;20871;-77
2022/02/28 09:41:27;;;;;;;8.57;6.60;;;19.70;59.80;;;;;;5095373;28;20464;-75
2022/02/28 09:43:54;;;;;;;8.30;7.50;;;20.20;59.60;;;;;;5093904;28;20518;-75
2022/02/28 09:46:21;;;;;;;7.17;6.43;;;20.30;59.00;;;;;;5093772;28;20859;-75
2022/02/28 09:48:49;;;;;;;8.23;7.30;;;20.20;58.30;;;;;;5092997;28;20461;-75
2022/02/28 09:51:16;;;;;;;7.60;6.80;;;19.90;58.70;;;;;;5093880;28;20830;-75
2022/02/28 09:53:43;;;;;;;7.30;6.57;;;19.70;59.10;;;;;;5093773;28;20477;-75
2022/02/28 09:56:10;;;;;;;8.10;7.30;;;19.60;58.70;;;;;;5093454;28;20990;-76
2022/02/28 09:58:36;;;;;;;8.13;7.37;;;20.00;58.30;;;;;;5093002;28;20461;-75
2022/02/28 10:01:04;;;;;;;9.07;6.83;;;19.50;59.20;;;;;;5093172;28;20462;-76
2022/02/28 10:03:31;;;;;;;7.90;6.90;;;19.90;58.60;;;;;;5092737;28;20482;-75
2022/02/28 10:06:01;;;;;;;7.43;6.63;;;19.90;60.10;;;;;;5092861;28;20464;-76
2022/02/28 10:08:39;;;;;;;7.97;7.17;;;20.40;58.40;;;;;;5093485;28;20457;-76
2022/02/28 10:11:07;;;;;;;7.97;7.20;;;20.40;58.20;;;;;;5093566;28;20465;-77
2022/02/28 10:13:37;;;;;;;8.30;6.80;;;20.60;58.00;;;;;;5094015;28;20481;-76
2022/02/28 10:16:04;;;;;;;10.53;7.20;;;20.90;58.20;;;;;;5093848;28;20845;-77
2022/02/28 10:18:31;;;;;;;7.20;6.50;;;20.90;58.50;;;;;;5093492;28;20469;-77
2022/02/28 10:20:59;;;;;;;7.80;6.47;;;21.00;56.80;;;;;;5093008;28;20465;-77
2022/02/28 10:23:26;;;;;;;8.10;6.47;;;21.00;57.70;;;;;;5093176;28;20481;-77
2022/02/28 10:25:54;;;;;;;7.17;6.50;;;20.80;55.80;;;;;;5092899;28;20456;-77
2022/02/28 10:28:23;;;;;;;7.57;6.77;;;20.20;56.70;;;;;;5092830;28;20531;-77
2022/02/28 10:31:01;;;;;;;7.50;6.60;;;19.60;58.00;;;;;;5093470;28;20557;-76
2022/02/28 10:33:30;;;;;;;8.43;6.97;;;19.90;58.50;;;;;;5093088;28;20479;-76
2022/02/28 10:36:10;;;;;;;10.10;7.87;;;20.40;58.30;;;;;;5092691;28;20472;-77
2022/02/28 10:38:42;;;;;;;8.63;6.30;;;20.90;57.50;;;;;;5092801;28;20453;-77
2022/02/28 10:41:16;;;;;;;8.23;7.43;;;21.00;57.00;;;;;;5092820;28;21014;-77
2022/02/28 10:43:45;;;;;;;7.67;6.97;;;22.00;57.50;;;;;;5092846;28;20488;-77
2022/02/28 10:46:17;;;;;;;8.30;7.50;;;22.20;55.50;;;;;;5092676;28;20508;-77
2022/02/28 10:48:55;;;;;;;9.40;7.80;;;22.50;55.10;;;;;;5092451;28;20461;-77
2022/02/28 10:51:23;;;;;;;8.77;7.87;;;21.70;56.60;;;;;;5092768;28;20488;-77
2022/02/28 10:54:08;;;;;;;9.00;8.10;;;21.70;55.30;;;;;;5092498;28;20543;-77
2022/02/28 10:56:55;;;;;;;8.93;7.43;;;21.90;55.20;;;;;;5092526;28;20876;-77
2022/02/28 10:59:25;;;;;;;10.00;8.20;;;22.10;55.60;;;;;;5092607;28;20462;-75
2022/02/28 11:01:53;;;;;;;9.83;8.33;;;21.90;55.70;;;;;;5092651;28;20936;-77
2022/02/28 11:04:35;;;;;;;9.03;8.10;;;22.30;55.30;;;;;;5093016;28;20894;-77
2022/02/28 11:07:04;;;;;;;10.00;8.30;;;21.50;53.70;;;;;;5091864;28;20481;-76
2022/02/28 11:09:34;;;;;;;9.80;8.80;;;20.40;54.30;;;;;;5092267;28;20868;-76
2022/02/28 11:12:33;;;;;;;9.67;8.60;;;19.50;57.20;;;;;;5092193;28;20478;-77
2022/02/28 11:15:01;;;;;;;10.20;8.50;;;18.80;54.80;;;;;;5092201;28;20508;-75
2022/02/28 11:17:29;;;;;;;9.57;8.23;;;18.20;56.20;;;;;;5091825;28;20460;-76
2022/02/28 11:19:59;;;;;;;9.97;8.03;;;18.70;57.60;;;;;;5091868;28;20454;-77
2022/02/28 11:22:28;;;;;;;8.70;7.80;;;19.80;57.80;;;;;;5092286;28;20461;-76
2022/02/28 11:24:56;;;;;;;9.57;8.27;;;20.60;57.10;;;;;;5091511;28;20509;-77
2022/02/28 11:27:25;;;;;;;10.27;9.13;;;21.40;56.20;;;;;;5091593;28;20460;-77
2022/02/28 11:29:55;;;;;;;9.80;8.50;;;21.60;54.60;;;;;;5091741;28;20454;-76
2022/02/28 11:32:25;;;;;;;10.67;8.87;;;21.40;56.40;;;;;;5092532;28;20477;-77
2022/02/28 11:34:53;;;;;;;9.67;8.67;;;21.60;56.60;;;;;;5091493;28;20512;-75
2022/02/28 11:37:23;;;;;;;9.57;8.40;;;22.20;55.80;;;;;;5091720;28;20469;-77
2022/02/28 11:40:01;;;;;;;9.43;8.40;;;22.10;55.00;;;;;;5092199;28;20831;-77
2022/02/28 11:43:02;;;;;;;10.33;9.23;;;22.30;55.00;;;;;;5092172;28;20457;-77
2022/02/28 11:45:32;;;;;;;9.80;8.80;;;21.70;53.50;;;;;;5091609;28;20453;-76
2022/02/28 11:48:16;;;;;;;10.13;8.83;;;21.20;55.60;;;;;;5090941;28;20461;-77
2022/02/28 11:50:52;;;;;;;9.70;8.50;;;21.70;56.10;;;;;;5091617;28;20453;-76
2022/02/28 11:53:42;;;;;;;10.53;9.00;;;22.50;54.60;;;;;;5091674;28;20504;-77
2022/02/28 11:56:51;;;;;;;9.17;8.37;;;22.30;54.80;;;;;;5091565;28;20457;-77
2022/02/28 11:59:21;;;;;;;9.33;8.33;;;21.90;53.70;;;;;;5091545;28;20488;-77
2022/02/28 12:01:53;;;;;;;8.80;8.00;;;21.80;54.00;;;;;;5091432;28;20843;-77
2022/02/28 12:04:22;;;;;;;9.13;8.23;;;21.70;53.10;;;;;;5091556;28;20486;-76
2022/02/28 12:06:53;;;;;;;9.07;8.17;;;21.90;53.20;;;;;;5090842;28;20457;-76
2022/02/28 12:09:45;;;;;;;8.60;7.80;;;21.80;51.70;;;;;;5091751;28;20975;-75
2022/02/28 12:12:18;;;;;;;9.33;7.73;;;21.30;54.10;;;;;;5091026;28;20485;-76
2022/02/28 12:15:20;;;;;;;10.57;8.63;;;21.30;53.70;;;;;;5091414;28;20847;-76
2022/02/28 12:18:09;;;;;;;9.60;8.60;;;21.40;53.70;;;;;;5090807;28;20461;-76
2022/02/28 12:20:45;;;;;;;8.37;7.57;;;22.00;53.60;;;;;;5091311;28;20503;-76
2022/02/28 12:23:15;;;;;;;10.30;8.13;;;22.20;53.20;;;;;;5091045;28;20520;-75
2022/02/28 12:25:47;;;;;;;9.27;8.37;;;21.90;53.10;;;;;;5091156;28;20807;-74
2022/02/28 12:28:21;;;;;;;9.60;7.53;;;21.70;53.30;;;;;;5090255;28;20458;-74
2022/02/28 12:30:52;;;;;;;10.93;9.20;;;21.50;53.70;;;;;;5091776;28;20485;-74
2022/02/28 12:33:20;;;;;;;11.97;7.90;;;21.60;53.50;;;;;;5090730;28;20542;-74
2022/02/28 12:35:59;;;;;;;9.57;8.60;;;22.10;54.00;;;;;;5179158;22;20453;-96
2022/02/28 12:38:41;;;;;;;9.13;7.70;;;21.90;52.40;;;;;;5093424;27;20196;-94
2022/02/28 12:41:10;;;;;;;8.70;7.90;;;22.00;53.20;;;;;;5094471;27;20450;-96
2022/02/28 12:43:49;;;;;;;9.33;7.90;;;22.10;52.20;;;;;;5094265;27;20529;-96
2022/02/28 12:46:19;;;;;;;8.80;8.00;;;22.20;52.10;;;;;;5051097;23;20537;-83
2022/02/28 12:48:48;;;;;;;8.70;7.90;;;21.90;51.70;;;;;;5008855;28;20461;-83
2022/02/28 12:51:16;;;;;;;8.10;7.30;;;21.50;53.20;;;;;;5009480;28;20960;-83